createdAt,value
2022-07-27T00:01:01.820Z,598.4
2022-07-27T00:02:04.079Z,598.2
2022-07-27T00:03:05.982Z,598.4
2022-07-27T00:04:08.543Z,598.3
2022-07-27T00:05:10.865Z,598.3
2022-07-27T00:06:13.068Z,598.6
2022-07-27T00:07:15.556Z,598.4
2022-07-27T00:08:17.753Z,598.8
2022-07-27T00:09:20.233Z,598.6
2022-07-27T00:10:21.883Z,599.2
2022-07-27T00:11:24.361Z,599.2
2022-07-27T00:12:26.540Z,599.9
2022-07-27T00:13:29.013Z,599.5
2022-07-27T00:14:32.267Z,599.9
2022-07-27T00:15:34.503Z,599.9
2022-07-27T00:16:36.950Z,599.6
2022-07-27T00:17:39.196Z,599.6
2022-07-27T00:18:41.399Z,599.8
2022-07-27T00:19:43.881Z,599.7
2022-07-27T00:20:46.075Z,599.7
2022-07-27T00:21:47.996Z,599.8
2022-07-27T00:22:50.499Z,599.7
2022-07-27T00:23:52.980Z,599.8
2022-07-27T00:24:54.880Z,599.9
2022-07-27T00:25:57.079Z,600.4
2022-07-27T00:26:58.991Z,600.4
2022-07-27T00:28:01.469Z,600.4
2022-07-27T00:29:03.394Z,600.7
2022-07-27T00:30:05.592Z,600.8
2022-07-27T00:31:08.013Z,600.7
2022-07-27T00:34:20.501Z,600.9
2022-07-27T00:35:22.686Z,601
2022-07-27T00:36:24.884Z,600.8
2022-07-27T00:37:27.114Z,600.7
2022-07-27T00:38:29.317Z,600.8
2022-07-27T00:39:31.783Z,600.8
2022-07-27T00:40:33.988Z,600.7
2022-07-27T00:41:36.163Z,600.8
2022-07-27T00:42:38.360Z,600.8
2022-07-27T00:43:40.839Z,601.2
2022-07-27T00:44:42.774Z,601.3
2022-07-27T00:45:45.254Z,601.4
2022-07-27T00:46:48.148Z,601.7
2022-07-27T00:48:55.677Z,601.7
2022-07-27T00:49:58.200Z,601.7
2022-07-27T00:51:00.113Z,601.9
2022-07-27T00:52:02.359Z,602.2
2022-07-27T00:53:04.560Z,602.3
2022-07-27T00:54:07.031Z,602.4
2022-07-27T00:55:09.506Z,602.7
2022-07-27T00:56:11.974Z,602.7
2022-07-27T00:57:14.174Z,602.5
2022-07-27T00:58:16.651Z,602.6
2022-07-27T00:59:18.557Z,602.8
2022-07-27T01:00:24.954Z,602.4
2022-07-27T01:01:27.609Z,602.1
2022-07-27T01:02:32.857Z,601.9
2022-07-27T01:05:49.022Z,602.4
2022-07-27T01:06:51.823Z,601.8
2022-07-27T01:07:54.022Z,602.4
2022-07-27T01:08:56.236Z,602.3
2022-07-27T01:10:00.298Z,602.1
2022-07-27T01:11:02.789Z,602.1
2022-07-27T01:12:05.265Z,601.9
2022-07-27T01:14:13.088Z,602.3
2022-07-27T01:15:15.561Z,602.3
2022-07-27T01:16:17.883Z,602.5
2022-07-27T01:17:20.078Z,602.3
2022-07-27T01:18:22.300Z,603
2022-07-27T01:19:24.214Z,602.8
2022-07-27T01:20:25.866Z,603.4
2022-07-27T01:22:33.065Z,603.6
2022-07-27T01:23:35.545Z,604.1
2022-07-27T01:24:37.749Z,604.3
2022-07-27T01:25:40.248Z,604.2
2022-07-27T01:26:42.446Z,604.5
2022-07-27T01:27:44.641Z,604.6
2022-07-27T01:28:47.125Z,604.5
2022-07-27T01:29:49.599Z,604.4
2022-07-27T01:30:52.252Z,604.3
2022-07-27T01:31:54.734Z,604.5
2022-07-27T01:32:56.949Z,604.4
2022-07-27T01:33:59.153Z,604.5
2022-07-27T01:35:01.359Z,604.4
2022-07-27T01:36:03.822Z,604.8
2022-07-27T01:37:05.468Z,604.7
2022-07-27T01:38:07.126Z,604.9
2022-07-27T01:39:10.902Z,605.2
2022-07-27T01:40:13.209Z,605.4
2022-07-27T01:41:15.691Z,605.5
2022-07-27T01:42:17.871Z,605.7
2022-07-27T01:43:20.068Z,605.7
2022-07-27T01:44:22.246Z,606
2022-07-27T01:45:24.421Z,606.2
2022-07-27T01:46:27.040Z,606.3
2022-07-27T01:47:29.563Z,606.2
2022-07-27T01:48:32.160Z,606.6
2022-07-27T01:49:34.673Z,607
2022-07-27T01:50:37.149Z,606.7
2022-07-27T01:51:39.627Z,607
2022-07-27T01:52:42.101Z,607.3
2022-07-27T01:53:44.294Z,607.5
2022-07-27T01:54:46.489Z,607.4
2022-07-27T01:55:48.697Z,607.7
2022-07-27T01:56:51.165Z,607.8
2022-07-27T01:57:53.366Z,607.9
2022-07-27T01:58:55.839Z,607.8
2022-07-27T01:59:57.488Z,608
2022-07-27T02:00:59.967Z,607.9
2022-07-27T02:02:02.367Z,607.9
2022-07-27T02:03:04.571Z,607.5
2022-07-27T02:04:06.477Z,607.5
2022-07-27T02:05:08.608Z,607.5
2022-07-27T02:06:10.985Z,607.8
2022-07-27T02:07:13.459Z,607.6
2022-07-27T02:08:15.940Z,607.1
2022-07-27T02:09:18.411Z,607
2022-07-27T02:10:20.624Z,607.3
2022-07-27T02:11:23.097Z,607.3
2022-07-27T02:12:25.031Z,607.1
2022-07-27T02:13:26.665Z,606.9
2022-07-27T02:14:29.561Z,606.6
2022-07-27T02:16:37.535Z,606
2022-07-27T02:19:51.884Z,605.3
2022-07-27T02:20:54.352Z,605.2
2022-07-27T02:21:56.825Z,605.3
2022-07-27T02:22:59.022Z,605.2
2022-07-27T02:24:01.197Z,605.1
2022-07-27T02:25:03.416Z,604.9
2022-07-27T02:26:05.613Z,604.4
2022-07-27T02:27:07.809Z,604.6
2022-07-27T02:28:10.000Z,604.8
2022-07-27T02:29:14.521Z,604.7
2022-07-27T02:31:21.993Z,604.3
2022-07-27T02:32:24.496Z,604.6
2022-07-27T02:33:27.011Z,604.4
2022-07-27T02:34:29.253Z,604.2
2022-07-27T02:35:31.174Z,604.4
2022-07-27T02:36:33.640Z,604
2022-07-27T02:38:41.114Z,604
2022-07-27T02:39:43.615Z,604.1
2022-07-27T02:40:45.246Z,604.6
2022-07-27T02:41:47.421Z,604.3
2022-07-27T02:42:49.625Z,604.6
2022-07-27T02:43:52.106Z,604.6
2022-07-27T02:44:54.323Z,605.1
2022-07-27T02:45:57.161Z,605
2022-07-27T02:46:59.372Z,604.7
2022-07-27T02:48:01.853Z,604.5
2022-07-27T02:49:04.858Z,604.8
2022-07-27T02:50:07.389Z,604.8
2022-07-27T02:51:09.043Z,604.9
2022-07-27T02:52:11.528Z,604.8
2022-07-27T02:53:14.001Z,604.7
2022-07-27T02:54:16.474Z,604.4
2022-07-27T02:55:18.765Z,604.6
2022-07-27T02:57:26.235Z,604.3
2022-07-27T02:58:28.697Z,604.6
2022-07-27T02:59:30.912Z,604.3
2022-07-27T03:00:33.109Z,604.3
2022-07-27T03:01:36.001Z,604.1
2022-07-27T03:02:38.515Z,604
2022-07-27T03:03:40.711Z,604.2
2022-07-27T03:04:43.624Z,603.9
2022-07-27T03:05:45.611Z,603.7
2022-07-27T03:06:47.787Z,603.9
2022-07-27T03:07:50.257Z,604.1
2022-07-27T03:08:52.479Z,603.7
2022-07-27T03:09:54.952Z,603.4
2022-07-27T03:10:57.160Z,603.5
2022-07-27T03:11:59.099Z,603.7
2022-07-27T03:13:01.309Z,603
2022-07-27T03:14:03.806Z,603.3
2022-07-27T03:15:05.734Z,603.4
2022-07-27T03:16:08.299Z,603.1
2022-07-27T03:17:10.532Z,603.2
2022-07-27T03:18:13.017Z,602.8
2022-07-27T03:19:16.272Z,603
2022-07-27T03:20:18.740Z,603.4
2022-07-27T03:21:22.916Z,603
2022-07-27T03:22:24.827Z,603.1
2022-07-27T03:23:27.023Z,603.5
2022-07-27T03:24:29.501Z,603.3
2022-07-27T03:25:31.974Z,603.3
2022-07-27T03:26:33.875Z,603.4
2022-07-27T03:27:36.354Z,603.3
2022-07-27T03:28:38.828Z,603.3
2022-07-27T03:29:40.460Z,603.3
2022-07-27T03:30:43.390Z,603.9
2022-07-27T03:31:47.530Z,603.7
2022-07-27T03:32:50.005Z,603.6
2022-07-27T03:33:51.925Z,603.6
2022-07-27T03:34:53.845Z,603.6
2022-07-27T03:35:55.878Z,603.8
2022-07-27T03:36:58.095Z,603.8
2022-07-27T03:38:00.292Z,603.8
2022-07-27T03:40:07.778Z,603.6
2022-07-27T03:41:09.695Z,603.7
2022-07-27T03:42:12.618Z,603.9
2022-07-27T03:43:15.090Z,604.2
2022-07-27T03:44:17.014Z,604.2
2022-07-27T03:45:19.195Z,604
2022-07-27T03:46:22.227Z,604.3
2022-07-27T03:47:24.177Z,604.2
2022-07-27T03:48:26.385Z,604.2
2022-07-27T03:49:29.293Z,603.9
2022-07-27T03:50:31.503Z,603.9
2022-07-27T03:51:34.012Z,603.9
2022-07-27T03:52:36.210Z,603.8
2022-07-27T03:53:38.403Z,603.8
2022-07-27T03:54:40.873Z,604.3
2022-07-27T03:55:43.349Z,604.5
2022-07-27T03:56:45.270Z,605.2
2022-07-27T03:57:47.470Z,605
2022-07-27T03:58:49.651Z,605
2022-07-27T03:59:51.280Z,605.3
2022-07-27T04:00:54.065Z,605.5
2022-07-27T04:01:56.002Z,606.1
2022-07-27T04:02:59.584Z,605.8
2022-07-27T04:04:02.098Z,606
2022-07-27T04:05:04.564Z,606.1
2022-07-27T04:06:06.776Z,606.3
2022-07-27T04:07:08.996Z,606.2
2022-07-27T04:08:11.184Z,605.8
2022-07-27T04:10:19.859Z,606.3
2022-07-27T04:12:32.939Z,606.1
2022-07-27T04:13:39.430Z,606.6
2022-07-27T04:14:41.328Z,606.5
2022-07-27T04:15:43.527Z,606.3
2022-07-27T04:16:46.335Z,605.7
2022-07-27T04:18:53.807Z,605.9
2022-07-27T04:19:56.017Z,606.2
2022-07-27T04:20:58.219Z,606
2022-07-27T04:22:00.429Z,605.9
2022-07-27T04:23:02.911Z,605.9
2022-07-27T04:24:05.409Z,605.9
2022-07-27T04:25:07.616Z,606.3
2022-07-27T04:26:10.214Z,605.8
2022-07-27T04:27:12.693Z,606.3
2022-07-27T04:28:15.167Z,606.1
2022-07-27T04:30:22.713Z,605.6
2022-07-27T04:31:25.437Z,606
2022-07-27T04:32:27.916Z,605.7
2022-07-27T04:33:30.109Z,605.9
2022-07-27T04:34:32.311Z,606.1
2022-07-27T04:35:34.229Z,606.1
2022-07-27T04:36:36.703Z,606
2022-07-27T04:37:39.185Z,606.1
2022-07-27T04:38:41.655Z,605.9
2022-07-27T04:39:44.118Z,606
2022-07-27T04:40:46.593Z,606.2
2022-07-27T04:41:48.513Z,605.8
2022-07-27T04:42:51.809Z,606.1
2022-07-27T04:43:54.280Z,606
2022-07-27T04:44:56.518Z,606
2022-07-27T04:45:58.371Z,606
2022-07-27T04:47:00.611Z,606.1
2022-07-27T04:48:02.812Z,606.2
2022-07-27T04:49:05.107Z,606.4
2022-07-27T04:50:07.325Z,607.1
2022-07-27T04:51:10.577Z,606.5
2022-07-27T04:52:12.786Z,606.8
2022-07-27T04:53:14.721Z,607
2022-07-27T04:54:16.922Z,606.8
2022-07-27T04:55:18.924Z,606.5
2022-07-27T04:56:20.858Z,606.2
2022-07-27T04:57:23.398Z,606
2022-07-27T04:58:25.617Z,605.9
2022-07-27T04:59:27.817Z,606.1
2022-07-27T05:00:30.006Z,605.8
2022-07-27T05:02:37.508Z,606.2
2022-07-27T05:03:40.274Z,605.7
2022-07-27T05:04:42.787Z,605.9
2022-07-27T05:06:50.249Z,606.3
2022-07-27T05:07:52.183Z,605.6
2022-07-27T05:08:54.391Z,606.2
2022-07-27T05:09:56.701Z,605.9
2022-07-27T05:10:58.944Z,605.8
2022-07-27T05:12:01.145Z,605.9
2022-07-27T05:14:09.054Z,605.5
2022-07-27T05:15:11.532Z,605.7
2022-07-27T05:16:14.164Z,605.6
2022-07-27T05:17:16.114Z,605.3
2022-07-27T05:18:17.747Z,605.3
2022-07-27T05:19:19.942Z,605.2
2022-07-27T05:20:22.441Z,605
2022-07-27T05:21:24.357Z,605.5
2022-07-27T05:22:26.579Z,604.9
2022-07-27T05:23:28.502Z,605
2022-07-27T05:24:30.444Z,605
2022-07-27T05:25:32.640Z,605.2
2022-07-27T05:26:34.548Z,605.2
2022-07-27T05:27:36.763Z,604.6
2022-07-27T05:28:38.967Z,604.8
2022-07-27T05:29:41.153Z,604.3
2022-07-27T05:30:43.364Z,604.2
2022-07-27T05:31:45.650Z,604.2
2022-07-27T05:32:47.853Z,603.8
2022-07-27T05:34:57.476Z,603.5
2022-07-27T05:35:59.404Z,603.3
2022-07-27T05:37:01.614Z,603.2
2022-07-27T05:38:04.081Z,603.2
2022-07-27T05:40:14.414Z,603.1
2022-07-27T05:41:16.891Z,603.5
2022-07-27T05:42:18.824Z,603.3
2022-07-27T05:43:21.028Z,603
2022-07-27T05:44:23.507Z,603.4
2022-07-27T05:45:26.280Z,603.5
2022-07-27T05:47:34.652Z,603.4
2022-07-27T05:48:37.192Z,603.1
2022-07-27T05:49:39.163Z,603.3
2022-07-27T05:50:40.835Z,602.9
2022-07-27T05:51:43.040Z,602.7
2022-07-27T05:52:45.249Z,603.2
2022-07-27T05:53:47.479Z,603.1
2022-07-27T05:54:49.976Z,602.9
2022-07-27T05:56:56.622Z,602.9
2022-07-27T05:57:58.530Z,602.5
2022-07-27T06:00:06.009Z,602.9
2022-07-27T06:01:08.880Z,602.9
2022-07-27T06:02:11.395Z,603
2022-07-27T06:03:13.840Z,603.4
2022-07-27T06:04:16.884Z,603.4
2022-07-27T06:05:19.243Z,603.2
2022-07-27T06:06:20.877Z,603.2
2022-07-27T06:07:22.506Z,603
2022-07-27T06:08:24.990Z,602.9
2022-07-27T06:09:27.193Z,602.8
2022-07-27T06:10:29.401Z,602.1
2022-07-27T06:11:31.898Z,602.3
2022-07-27T06:12:34.397Z,602.2
2022-07-27T06:13:36.881Z,601.8
2022-07-27T06:14:38.826Z,602
2022-07-27T06:15:41.326Z,602
2022-07-27T06:16:43.764Z,602.3
2022-07-27T06:17:46.283Z,602.4
2022-07-27T06:18:48.497Z,602.2
2022-07-27T06:19:50.436Z,602
2022-07-27T06:20:52.644Z,602.2
2022-07-27T06:21:56.236Z,602.5
2022-07-27T06:22:57.892Z,602.6
2022-07-27T06:24:00.097Z,602.4
2022-07-27T06:25:02.347Z,602.3
2022-07-27T06:26:04.603Z,602.3
2022-07-27T06:27:06.829Z,602.4
2022-07-27T06:28:09.340Z,602.2
2022-07-27T06:29:14.717Z,602.5
2022-07-27T06:30:17.527Z,602.2
2022-07-27T06:31:23.079Z,602.5
2022-07-27T06:32:26.392Z,602.7
2022-07-27T06:33:31.599Z,602.5
2022-07-27T06:35:45.632Z,602.6
2022-07-27T06:36:48.995Z,602.9
2022-07-27T06:37:51.495Z,602.5
2022-07-27T06:38:53.979Z,602.7
2022-07-27T06:39:55.619Z,603
2022-07-27T06:40:57.824Z,602.6
2022-07-27T06:41:59.986Z,603.4
2022-07-27T06:43:02.190Z,602.6
2022-07-27T06:44:04.421Z,602.9
2022-07-27T06:45:06.905Z,603
2022-07-27T06:46:09.379Z,602.8
2022-07-27T06:47:12.308Z,602.7
2022-07-27T06:48:14.520Z,602.8
2022-07-27T06:49:19.176Z,602.5
2022-07-27T06:50:21.740Z,602.9
2022-07-27T06:51:23.947Z,602.5
2022-07-27T06:52:26.443Z,602.8
2022-07-27T06:54:34.903Z,603.2
2022-07-27T06:55:37.098Z,603.1
2022-07-27T06:56:39.291Z,603
2022-07-27T06:57:41.759Z,602.9
2022-07-27T06:58:44.243Z,602.8
2022-07-27T06:59:46.711Z,602.7
2022-07-27T07:00:49.331Z,602.5
2022-07-27T07:01:51.588Z,602.8
2022-07-27T07:02:53.792Z,602.7
2022-07-27T07:03:56.497Z,603
2022-07-27T07:04:58.742Z,602.8
2022-07-27T07:06:00.964Z,602.7
2022-07-27T07:08:08.165Z,602.9
2022-07-27T07:09:13.641Z,603.3
2022-07-27T07:10:16.249Z,603.5
2022-07-27T07:11:17.899Z,603.2
2022-07-27T07:12:20.383Z,603.6
2022-07-27T07:13:22.077Z,603.4
2022-07-27T07:14:23.451Z,603.6
2022-07-27T07:15:25.650Z,603.4
2022-07-27T07:16:28.580Z,603.8
2022-07-27T07:17:31.167Z,603.7
2022-07-27T07:18:33.657Z,603.8
2022-07-27T07:19:35.649Z,603.6
2022-07-27T07:20:37.846Z,603.5
2022-07-27T07:21:40.077Z,603.7
2022-07-27T07:22:42.558Z,603.6
2022-07-27T07:23:43.920Z,603.8
2022-07-27T07:24:46.411Z,603.7
2022-07-27T07:25:48.889Z,603.7
2022-07-27T07:26:50.845Z,603.8
2022-07-27T07:27:53.344Z,603.3
2022-07-27T07:28:55.822Z,603.7
2022-07-27T07:29:57.770Z,603.7
2022-07-27T07:31:01.281Z,603.4
2022-07-27T07:32:03.513Z,604.3
2022-07-27T07:33:05.467Z,603.9
2022-07-27T07:34:07.670Z,603.5
2022-07-27T07:35:09.901Z,603.7
2022-07-27T07:37:17.413Z,604
2022-07-27T07:38:19.615Z,603.7
2022-07-27T07:39:21.545Z,603.6
2022-07-27T07:41:28.757Z,603.9
2022-07-27T07:42:30.975Z,603.8
2022-07-27T07:43:33.456Z,603.5
2022-07-27T07:44:35.694Z,603.8
2022-07-27T07:45:37.331Z,603.8
2022-07-27T07:47:44.838Z,603.8
2022-07-27T07:48:47.383Z,603.9
2022-07-27T07:49:49.600Z,603.6
2022-07-27T07:50:54.987Z,603.5
2022-07-27T07:51:57.199Z,603.5
2022-07-27T07:52:59.153Z,603.4
2022-07-27T07:54:01.630Z,603.2
2022-07-27T07:55:03.838Z,603
2022-07-27T07:56:06.097Z,603.3
2022-07-27T07:57:08.327Z,603
2022-07-27T07:58:10.533Z,602.7
2022-07-27T07:59:15.180Z,602.9
2022-07-27T08:00:17.571Z,602.7
2022-07-27T08:01:20.433Z,603.2
2022-07-27T08:02:22.997Z,602.6
2022-07-27T08:03:25.753Z,602.7
2022-07-27T08:04:27.721Z,602.8
2022-07-27T08:05:30.221Z,603
2022-07-27T08:06:32.148Z,602.6
2022-07-27T08:07:34.360Z,602.7
2022-07-27T08:08:36.592Z,602.6
2022-07-27T08:09:39.327Z,602.1
2022-07-27T08:10:41.841Z,602
2022-07-27T08:11:44.328Z,602.3
2022-07-27T08:12:46.533Z,602.6
2022-07-27T08:13:49.036Z,602.3
2022-07-27T08:14:51.227Z,602.3
2022-07-27T08:15:54.286Z,602.4
2022-07-27T08:16:56.536Z,602.5
2022-07-27T08:17:59.170Z,602.8
2022-07-27T08:19:01.654Z,602.4
2022-07-27T08:20:03.834Z,602.2
2022-07-27T08:21:06.012Z,602.3
2022-07-27T08:22:08.203Z,602.3
2022-07-27T08:23:10.695Z,602.2
2022-07-27T08:24:13.183Z,602.1
2022-07-27T08:25:15.705Z,602.1
2022-07-27T08:26:18.182Z,602.3
2022-07-27T08:27:20.383Z,602.2
2022-07-27T08:28:22.715Z,602.5
2022-07-27T08:30:34.635Z,602.1
2022-07-27T08:32:42.412Z,602.3
2022-07-27T08:33:44.348Z,602
2022-07-27T08:34:46.258Z,602.2
2022-07-27T08:35:48.214Z,602.2
2022-07-27T08:36:50.157Z,602.7
2022-07-27T08:37:52.655Z,602.5
2022-07-27T08:38:55.140Z,602.5
2022-07-27T08:41:02.343Z,602.3
2022-07-27T08:42:04.839Z,602.6
2022-07-27T08:43:07.841Z,602.4
2022-07-27T08:44:10.601Z,602.4
2022-07-27T08:46:18.141Z,602.3
2022-07-27T08:47:20.383Z,602.2
2022-07-27T08:48:22.588Z,602.2
2022-07-27T08:50:29.809Z,602.6
2022-07-27T08:51:32.015Z,602.4
2022-07-27T08:52:34.499Z,602.4
2022-07-27T08:54:41.706Z,602.5
2022-07-27T08:55:43.923Z,602.4
2022-07-27T08:56:45.989Z,602.5
2022-07-27T08:57:48.226Z,602.5
2022-07-27T08:58:50.437Z,602.5
2022-07-27T08:59:53.935Z,602.4
2022-07-27T09:00:56.156Z,602.4
2022-07-27T09:01:59.147Z,602.4
2022-07-27T09:03:01.930Z,602.4
2022-07-27T09:04:03.956Z,602
2022-07-27T09:05:06.469Z,601.8
2022-07-27T09:06:08.755Z,601.9
2022-07-27T09:07:11.248Z,601.6
2022-07-27T09:08:13.460Z,601.7
2022-07-27T09:09:17.612Z,601.5
2022-07-27T09:10:19.349Z,601.4
2022-07-27T09:11:21.772Z,601.1
2022-07-27T09:12:24.335Z,601.2
2022-07-27T09:13:26.873Z,601.1
2022-07-27T09:14:29.088Z,601.2
2022-07-27T09:18:46.729Z,600.8
2022-07-27T09:19:49.214Z,600.8
2022-07-27T09:20:51.421Z,600.7
2022-07-27T09:21:53.344Z,600.7
2022-07-27T09:22:55.560Z,600.9
2022-07-27T09:23:57.514Z,601
2022-07-27T09:25:00.005Z,601.1
2022-07-27T09:27:07.220Z,601.1
2022-07-27T09:28:09.406Z,601.4
2022-07-27T09:29:14.190Z,601.2
2022-07-27T09:30:16.732Z,601.3
2022-07-27T09:31:19.559Z,601.2
2022-07-27T09:32:21.804Z,601.3
2022-07-27T09:33:24.008Z,601.2
2022-07-27T09:34:26.218Z,601.2
2022-07-27T09:35:28.701Z,601.3
2022-07-27T09:36:31.219Z,600.9
2022-07-27T09:37:33.140Z,600.9
2022-07-27T09:38:35.641Z,601.1
2022-07-27T09:39:37.918Z,600.8
2022-07-27T09:40:40.265Z,600.8
2022-07-27T09:41:42.394Z,600.5
2022-07-27T09:45:59.982Z,600.3
2022-07-27T09:47:02.720Z,600.5
2022-07-27T09:48:05.202Z,600.3
2022-07-27T09:50:15.142Z,600.8
2022-07-27T09:52:22.647Z,600.6
2022-07-27T09:54:29.576Z,601.1
2022-07-27T09:55:31.521Z,601
2022-07-27T09:56:34.017Z,601.3
2022-07-27T09:57:36.522Z,601.3
2022-07-27T09:58:39.023Z,601.4
2022-07-27T09:59:41.250Z,601.6
2022-07-27T10:00:43.752Z,601.6
2022-07-27T10:02:51.287Z,601
2022-07-27T10:03:53.528Z,601.2
2022-07-27T10:04:56.566Z,601
2022-07-27T10:05:59.243Z,601
2022-07-27T10:08:06.160Z,601
2022-07-27T10:09:08.634Z,600.9
2022-07-27T10:10:10.840Z,600.9
2022-07-27T10:11:12.745Z,600.8
2022-07-27T10:12:16.017Z,601.1
2022-07-27T10:13:20.369Z,601
2022-07-27T10:14:22.844Z,600.8
2022-07-27T10:15:25.048Z,601.2
2022-07-27T10:16:28.010Z,601.2
2022-07-27T10:17:30.583Z,600.9
2022-07-27T10:19:40.353Z,601.1
2022-07-27T10:21:49.025Z,601.1
2022-07-27T10:22:51.243Z,600.9
2022-07-27T10:23:53.723Z,600.7
2022-07-27T10:24:56.202Z,600.6
2022-07-27T10:25:58.693Z,600.5
2022-07-27T10:27:00.884Z,600.5
2022-07-27T10:28:03.106Z,600.6
2022-07-27T10:29:05.600Z,601
2022-07-27T10:30:07.807Z,600.8
2022-07-27T10:31:10.519Z,600.7
2022-07-27T10:32:12.748Z,600.7
2022-07-27T10:33:15.221Z,600.3
2022-07-27T10:34:17.833Z,600.7
2022-07-27T10:35:20.316Z,600.1
2022-07-27T10:36:22.795Z,600.2
2022-07-27T10:37:26.019Z,600.1
2022-07-27T10:38:27.933Z,599.9
2022-07-27T10:39:29.871Z,599.7
2022-07-27T10:40:31.237Z,599.7
2022-07-27T10:41:32.878Z,599.7
2022-07-27T10:42:35.380Z,599.9
2022-07-27T10:43:37.882Z,599.7
2022-07-27T10:44:40.090Z,599.7
2022-07-27T10:46:47.687Z,600.2
2022-07-27T10:47:49.942Z,600
2022-07-27T10:48:51.956Z,600.2
2022-07-27T10:49:53.629Z,599.9
2022-07-27T10:50:55.835Z,600.2
2022-07-27T10:51:58.673Z,600.2
2022-07-27T10:53:01.968Z,600.3
2022-07-27T10:55:09.160Z,600.2
2022-07-27T10:56:11.629Z,600.1
2022-07-27T10:57:14.105Z,600.2
2022-07-27T10:58:15.749Z,599.8
2022-07-27T10:59:17.945Z,600.6
2022-07-27T11:00:22.392Z,600.5
2022-07-27T11:01:24.815Z,600.8
2022-07-27T11:02:27.991Z,601
2022-07-27T11:03:30.259Z,600.5
2022-07-27T11:04:32.698Z,600.7
2022-07-27T11:10:59.632Z,600.3
2022-07-27T11:12:02.122Z,600.3
2022-07-27T11:14:10.049Z,600.2
2022-07-27T11:15:12.453Z,600
2022-07-27T11:19:30.484Z,600.1
2022-07-27T11:20:33.854Z,600.1
2022-07-27T11:21:36.334Z,600.5
2022-07-27T11:24:48.819Z,600.1
2022-07-27T11:26:55.745Z,600.6
2022-07-27T11:27:57.941Z,600.2
2022-07-27T11:29:00.146Z,599.9
2022-07-27T11:30:02.344Z,599.9
2022-07-27T11:31:06.097Z,600.2
2022-07-27T11:32:08.633Z,600.2
2022-07-27T11:33:11.172Z,600.3
2022-07-27T11:34:16.375Z,600.7
2022-07-27T11:36:23.765Z,600.6
2022-07-27T11:37:26.237Z,600.6
2022-07-27T11:38:28.159Z,600.4
2022-07-27T11:42:45.765Z,601.3
2022-07-27T11:43:49.280Z,601.2
2022-07-27T11:44:53.211Z,601.7
2022-07-27T11:45:58.396Z,601.6
2022-07-27T11:48:05.910Z,601.5
2022-07-27T11:50:14.043Z,601.5
2022-07-27T11:51:16.301Z,601.5
2022-07-27T11:52:18.775Z,601.4
2022-07-27T11:53:20.469Z,601.6
2022-07-27T11:54:22.395Z,601.3
2022-07-27T11:55:24.896Z,601.4
2022-07-27T11:56:29.589Z,601
2022-07-27T11:57:31.797Z,601.2
2022-07-27T11:58:33.738Z,601.2
2022-07-27T11:59:35.947Z,601.2
2022-07-27T12:00:38.427Z,601.5
2022-07-27T12:01:40.366Z,601.2
2022-07-27T12:02:43.668Z,602.1
2022-07-27T12:04:52.052Z,602
2022-07-27T12:05:54.356Z,601.7
2022-07-27T12:06:56.588Z,602.2
2022-07-27T12:07:59.086Z,602.3
2022-07-27T12:09:01.292Z,602.7
2022-07-27T12:10:03.671Z,602.5
2022-07-27T12:11:05.881Z,602.5
2022-07-27T12:12:08.073Z,602.6
2022-07-27T12:13:10.694Z,602.3
2022-07-27T12:14:13.168Z,602.5
2022-07-27T12:16:20.762Z,602.1
2022-07-27T12:17:23.242Z,602.3
2022-07-27T12:18:25.174Z,602.1
2022-07-27T12:19:26.815Z,602.4
2022-07-27T12:20:29.027Z,602.5
2022-07-27T12:22:36.287Z,602.5
2022-07-27T12:23:38.783Z,601.8
2022-07-27T12:24:40.692Z,602.1
2022-07-27T12:25:42.900Z,602.4
2022-07-27T12:26:45.398Z,602.5
2022-07-27T12:27:47.300Z,602.3
2022-07-27T12:28:50.227Z,602.4
2022-07-27T12:29:52.427Z,602.7
2022-07-27T12:30:55.337Z,602.5
2022-07-27T12:31:57.280Z,602.5
2022-07-27T12:32:59.838Z,602.9
2022-07-27T12:35:06.774Z,602.7
2022-07-27T12:36:08.736Z,602.9
2022-07-27T12:37:10.956Z,603
2022-07-27T12:38:12.889Z,603.1
2022-07-27T12:39:16.587Z,603.2
2022-07-27T12:40:18.507Z,603.3
2022-07-27T12:41:21.003Z,603.1
2022-07-27T12:42:23.208Z,603.3
2022-07-27T12:43:25.138Z,603
2022-07-27T12:44:27.052Z,603.3
2022-07-27T12:45:29.217Z,603.5
2022-07-27T12:46:32.359Z,602.7
2022-07-27T12:47:34.615Z,603.5
2022-07-27T12:48:37.222Z,603.2
2022-07-27T12:50:44.186Z,603.4
2022-07-27T12:51:46.419Z,602.9
2022-07-27T12:52:51.036Z,603.6
2022-07-27T12:53:53.265Z,603.3
2022-07-27T12:54:55.750Z,603.6
2022-07-27T12:55:57.682Z,603.1
2022-07-27T12:57:00.160Z,603.2
2022-07-27T12:58:02.400Z,603.2
2022-07-27T12:59:04.614Z,603.1
2022-07-27T13:00:07.199Z,603
2022-07-27T13:01:09.987Z,603.2
2022-07-27T13:02:12.597Z,603
2022-07-27T13:03:15.107Z,602.8
2022-07-27T13:04:17.297Z,603.1
2022-07-27T13:05:19.947Z,602.8
2022-07-27T13:06:21.613Z,602.4
2022-07-27T13:07:23.822Z,603
2022-07-27T13:08:25.622Z,602.9
2022-07-27T13:10:32.826Z,602.9
2022-07-27T13:11:35.008Z,603
2022-07-27T13:12:37.217Z,603.2
2022-07-27T13:13:39.409Z,603.2
2022-07-27T13:15:47.798Z,603.2
2022-07-27T13:16:52.074Z,603.2
2022-07-27T13:17:54.309Z,603.3
2022-07-27T13:18:56.779Z,603.2
2022-07-27T13:19:59.257Z,603
2022-07-27T13:21:01.757Z,602.9
2022-07-27T13:22:04.244Z,603.1
2022-07-27T13:23:06.451Z,603
2022-07-27T13:24:10.462Z,603.3
2022-07-27T13:26:17.398Z,602.7
2022-07-27T13:27:19.315Z,603.1
2022-07-27T13:28:21.504Z,602.5
2022-07-27T13:29:23.689Z,602.6
2022-07-27T13:30:26.240Z,602.1
2022-07-27T13:31:28.608Z,602.1
2022-07-27T13:32:31.322Z,602.7
2022-07-27T13:33:33.330Z,602.3
2022-07-27T13:34:35.813Z,603
2022-07-27T13:35:38.296Z,602.9
2022-07-27T13:36:40.774Z,602.8
2022-07-27T13:37:42.975Z,603.1
2022-07-27T13:38:45.177Z,602.8
2022-07-27T13:39:47.391Z,603.1
2022-07-27T13:40:49.880Z,603.3
2022-07-27T13:42:56.824Z,603
2022-07-27T13:43:59.302Z,602.8
2022-07-27T13:46:07.227Z,603.4
2022-07-27T13:47:09.178Z,603.4
2022-07-27T13:48:11.381Z,603.1
2022-07-27T13:49:17.686Z,603.6
2022-07-27T13:50:22.020Z,603.6
2022-07-27T13:51:24.219Z,603.5
2022-07-27T13:52:26.421Z,603.5
2022-07-27T13:53:28.904Z,603.1
2022-07-27T13:54:30.831Z,603.1
2022-07-27T13:55:33.298Z,603.4
2022-07-27T13:56:35.520Z,603.3
2022-07-27T13:57:37.995Z,603.5
2022-07-27T13:58:40.770Z,603.4
2022-07-27T13:59:42.408Z,603.7
2022-07-27T14:00:45.011Z,603.9
2022-07-27T14:01:50.137Z,603.6
2022-07-27T14:02:52.996Z,603.8
2022-07-27T14:03:56.335Z,603.9
2022-07-27T14:05:01.299Z,604
2022-07-27T14:07:13.255Z,604.1
2022-07-27T14:08:15.453Z,603.7
2022-07-27T14:10:22.926Z,603.7
2022-07-27T14:11:25.041Z,603.8
2022-07-27T14:12:27.251Z,603.9
2022-07-27T14:13:29.464Z,603.4
2022-07-27T14:14:31.943Z,603.7
2022-07-27T14:15:33.850Z,604
2022-07-27T14:16:36.691Z,603.5
2022-07-27T14:17:38.939Z,603.9
2022-07-27T14:18:41.417Z,604
2022-07-27T14:19:43.340Z,604
2022-07-27T14:20:45.558Z,604.1
2022-07-27T14:21:47.746Z,604.2
2022-07-27T14:22:50.227Z,604.2
2022-07-27T14:23:52.162Z,604.3
2022-07-27T14:24:54.379Z,604.5
2022-07-27T14:25:56.875Z,604.2
2022-07-27T14:26:58.805Z,604.3
2022-07-27T14:28:00.995Z,604.4
2022-07-27T14:29:02.630Z,604
2022-07-27T14:30:04.860Z,604.5
2022-07-27T14:31:09.640Z,604.5
2022-07-27T14:32:14.231Z,604.5
2022-07-27T14:33:16.444Z,604.7
2022-07-27T14:34:18.646Z,604.6
2022-07-27T14:35:21.118Z,605.1
2022-07-27T14:36:23.045Z,605.2
2022-07-27T14:37:25.227Z,605.1
2022-07-27T14:39:32.791Z,605
2022-07-27T14:40:35.409Z,604.8
2022-07-27T14:42:42.900Z,604.4
2022-07-27T14:43:45.093Z,605
2022-07-27T14:44:47.296Z,604.7
2022-07-27T14:45:49.217Z,605
2022-07-27T14:46:51.167Z,605.1
2022-07-27T14:47:53.385Z,605.2
2022-07-27T14:50:01.188Z,605.2
2022-07-27T14:51:03.753Z,604.9
2022-07-27T14:52:05.941Z,605.2
2022-07-27T14:53:08.147Z,605
2022-07-27T14:54:10.349Z,605.2
2022-07-27T14:55:12.828Z,604.9
2022-07-27T14:56:15.350Z,605.2
2022-07-27T14:57:17.828Z,605.3
2022-07-27T14:58:20.322Z,605
2022-07-27T14:59:22.804Z,605
2022-07-27T15:00:24.717Z,605.1
2022-07-27T15:01:27.226Z,605
2022-07-27T15:02:29.265Z,605
2022-07-27T15:03:31.504Z,605.2
2022-07-27T15:04:34.000Z,604.7
2022-07-27T15:06:41.493Z,605.1